sensor_id;sensor_type;location;lat;lon;timestamp;pressure;altitude;pressure_sealevel;temperature;humidity
55912;BME280;41823;45.534;-73.332;2022-08-04T00:00:39;100648.56;;;30.39;29.96
55912;BME280;41823;45.534;-73.332;2022-08-04T00:03:15;100642.66;;;30.41;30.29
55912;BME280;41823;45.534;-73.332;2022-08-04T00:05:56;100650.03;;;29.92;30.24
55912;BME280;41823;45.534;-73.332;2022-08-04T00:08:33;100650.81;;;30.16;30.14
55912;BME280;41823;45.534;-73.332;2022-08-04T00:11:03;100648.27;;;29.81;29.14
55912;BME280;41823;45.534;-73.332;2022-08-04T00:13:36;100647.69;;;29.94;30.78
55912;BME280;41823;45.534;-73.332;2022-08-04T00:16:06;100642.13;;;29.29;30.50
55912;BME280;41823;45.534;-73.332;2022-08-04T00:18:40;100637.39;;;29.96;30.34
55912;BME280;41823;45.534;-73.332;2022-08-04T00:21:11;100637.18;;;29.94;30.79
55912;BME280;41823;45.534;-73.332;2022-08-04T00:23:43;100637.56;;;29.65;30.84
55912;BME280;41823;45.534;-73.332;2022-08-04T00:26:11;100635.78;;;29.70;29.72
55912;BME280;41823;45.534;-73.332;2022-08-04T00:28:43;100637.87;;;29.52;30.27
55912;BME280;41823;45.534;-73.332;2022-08-04T00:31:14;100638.46;;;29.72;30.55
55912;BME280;41823;45.534;-73.332;2022-08-04T00:33:44;100638.35;;;29.64;30.13
55912;BME280;41823;45.534;-73.332;2022-08-04T00:36:13;100641.06;;;29.18;30.74
55912;BME280;41823;45.534;-73.332;2022-08-04T00:38:41;100638.01;;;29.81;30.98
55912;BME280;41823;45.534;-73.332;2022-08-04T00:41:26;100639.79;;;29.64;30.17
55912;BME280;41823;45.534;-73.332;2022-08-04T00:44:11;100651.15;;;29.86;29.08
55912;BME280;41823;45.534;-73.332;2022-08-04T00:46:59;100646.36;;;29.69;30.26
55912;BME280;41823;45.534;-73.332;2022-08-04T00:49:58;100648.31;;;29.36;30.41
55912;BME280;41823;45.534;-73.332;2022-08-04T00:52:40;100655.99;;;29.97;29.98
55912;BME280;41823;45.534;-73.332;2022-08-04T00:55:23;100652.44;;;29.78;30.38
55912;BME280;41823;45.534;-73.332;2022-08-04T00:58:08;100654.55;;;29.75;30.82
55912;BME280;41823;45.534;-73.332;2022-08-04T01:00:51;100657.06;;;29.72;28.52
55912;BME280;41823;45.534;-73.332;2022-08-04T01:03:31;100649.51;;;29.62;29.92
55912;BME280;41823;45.534;-73.332;2022-08-04T01:06:10;100639.44;;;29.02;30.02
55912;BME280;41823;45.534;-73.332;2022-08-04T01:08:52;100637.11;;;29.57;29.83
55912;BME280;41823;45.534;-73.332;2022-08-04T01:11:34;100635.19;;;29.70;29.82
55912;BME280;41823;45.534;-73.332;2022-08-04T01:14:31;100635.70;;;29.62;30.32
55912;BME280;41823;45.534;-73.332;2022-08-04T01:17:12;100648.62;;;29.76;29.64
55912;BME280;41823;45.534;-73.332;2022-08-04T01:19:57;100649.10;;;29.51;29.21
55912;BME280;41823;45.534;-73.332;2022-08-04T01:22:49;100644.20;;;29.45;28.77
55912;BME280;41823;45.534;-73.332;2022-08-04T01:25:47;100642.60;;;29.53;28.95
55912;BME280;41823;45.534;-73.332;2022-08-04T01:28:29;100652.31;;;29.64;29.44
55912;BME280;41823;45.534;-73.332;2022-08-04T01:31:10;100656.56;;;29.66;29.84
55912;BME280;41823;45.534;-73.332;2022-08-04T01:33:42;100656.18;;;29.80;29.11
55912;BME280;41823;45.534;-73.332;2022-08-04T01:36:14;100654.81;;;29.57;29.99
55912;BME280;41823;45.534;-73.332;2022-08-04T01:38:43;100660.67;;;29.63;29.56
55912;BME280;41823;45.534;-73.332;2022-08-04T01:41:14;100651.75;;;29.64;30.05
55912;BME280;41823;45.534;-73.332;2022-08-04T01:43:46;100655.13;;;29.80;29.94
55912;BME280;41823;45.534;-73.332;2022-08-04T01:46:16;100654.12;;;29.75;29.21
55912;BME280;41823;45.534;-73.332;2022-08-04T01:48:46;100654.46;;;29.90;29.10
55912;BME280;41823;45.534;-73.332;2022-08-04T01:51:14;100655.13;;;29.41;29.06
55912;BME280;41823;45.534;-73.332;2022-08-04T01:53:43;100651.92;;;29.71;29.68
55912;BME280;41823;45.534;-73.332;2022-08-04T01:56:12;100647.01;;;30.01;28.39
55912;BME280;41823;45.534;-73.332;2022-08-04T01:58:40;100649.72;;;29.67;29.21
55912;BME280;41823;45.534;-73.332;2022-08-04T02:01:10;100661.70;;;29.78;29.11
55912;BME280;41823;45.534;-73.332;2022-08-04T02:03:41;100661.78;;;28.97;30.40
55912;BME280;41823;45.534;-73.332;2022-08-04T02:06:20;100654.66;;;29.92;29.99
55912;BME280;41823;45.534;-73.332;2022-08-04T02:09:03;100643.50;;;29.88;30.51
55912;BME280;41823;45.534;-73.332;2022-08-04T02:11:33;100635.76;;;29.73;29.13
55912;BME280;41823;45.534;-73.332;2022-08-04T02:14:09;100645.06;;;29.64;29.18
55912;BME280;41823;45.534;-73.332;2022-08-04T02:16:48;100647.39;;;29.52;29.32
55912;BME280;41823;45.534;-73.332;2022-08-04T02:19:24;100648.87;;;29.77;30.10
55912;BME280;41823;45.534;-73.332;2022-08-04T02:22:05;100644.11;;;29.55;30.53
55912;BME280;41823;45.534;-73.332;2022-08-04T02:24:42;100641.39;;;29.71;30.37
55912;BME280;41823;45.534;-73.332;2022-08-04T02:27:13;100648.79;;;30.08;30.77
55912;BME280;41823;45.534;-73.332;2022-08-04T02:29:47;100646.70;;;30.08;30.65
55912;BME280;41823;45.534;-73.332;2022-08-04T02:32:24;100646.69;;;29.98;30.12
55912;BME280;41823;45.534;-73.332;2022-08-04T02:34:56;100661.00;;;29.63;30.18
55912;BME280;41823;45.534;-73.332;2022-08-04T02:37:31;100661.27;;;29.76;29.79
55912;BME280;41823;45.534;-73.332;2022-08-04T02:40:00;100659.69;;;29.84;29.22
55912;BME280;41823;45.534;-73.332;2022-08-04T02:42:29;100644.42;;;29.46;29.99
55912;BME280;41823;45.534;-73.332;2022-08-04T02:44:59;100638.75;;;29.40;30.17
55912;BME280;41823;45.534;-73.332;2022-08-04T02:47:28;100640.26;;;29.94;30.18
55912;BME280;41823;45.534;-73.332;2022-08-04T02:49:57;100630.73;;;29.64;30.54
55912;BME280;41823;45.534;-73.332;2022-08-04T02:52:25;100626.63;;;30.24;30.79
55912;BME280;41823;45.534;-73.332;2022-08-04T02:54:56;100624.65;;;29.82;30.66
55912;BME280;41823;45.534;-73.332;2022-08-04T02:57:29;100623.31;;;30.47;30.40
55912;BME280;41823;45.534;-73.332;2022-08-04T03:00:05;100617.61;;;30.04;29.74
55912;BME280;41823;45.534;-73.332;2022-08-04T03:02:41;100612.01;;;29.47;30.52
55912;BME280;41823;45.534;-73.332;2022-08-04T03:05:17;100616.06;;;30.01;30.62
55912;BME280;41823;45.534;-73.332;2022-08-04T03:08:11;100622.27;;;30.14;30.37
55912;BME280;41823;45.534;-73.332;2022-08-04T03:11:07;100618.43;;;29.81;30.55
55912;BME280;41823;45.534;-73.332;2022-08-04T03:13:57;100615.59;;;29.96;30.93
55912;BME280;41823;45.534;-73.332;2022-08-04T03:16:58;100622.67;;;30.03;30.93
55912;BME280;41823;45.534;-73.332;2022-08-04T03:19:52;100629.69;;;29.84;30.81
55912;BME280;41823;45.534;-73.332;2022-08-04T03:22:55;100630.82;;;29.59;31.67
55912;BME280;41823;45.534;-73.332;2022-08-04T03:26:02;100625.99;;;29.67;31.11
55912;BME280;41823;45.534;-73.332;2022-08-04T03:29:16;100628.66;;;30.06;31.27
55912;BME280;41823;45.534;-73.332;2022-08-04T03:32:16;100632.13;;;30.20;31.01
55912;BME280;41823;45.534;-73.332;2022-08-04T03:35:06;100625.82;;;30.27;31.00
55912;BME280;41823;45.534;-73.332;2022-08-04T03:37:59;100628.18;;;29.96;30.08
55912;BME280;41823;45.534;-73.332;2022-08-04T03:40:58;100627.15;;;30.20;31.57
55912;BME280;41823;45.534;-73.332;2022-08-04T03:44:19;100627.26;;;30.80;31.31
55912;BME280;41823;45.534;-73.332;2022-08-04T03:47:10;100620.09;;;30.40;31.34
55912;BME280;41823;45.534;-73.332;2022-08-04T03:50:07;100614.33;;;30.33;30.63
55912;BME280;41823;45.534;-73.332;2022-08-04T03:53:11;100616.07;;;30.58;30.41
55912;BME280;41823;45.534;-73.332;2022-08-04T03:56:50;100612.33;;;30.83;31.02
55912;BME280;41823;45.534;-73.332;2022-08-04T03:59:43;100610.05;;;30.85;31.17
55912;BME280;41823;45.534;-73.332;2022-08-04T04:05:10;100601.40;;;31.10;30.10
55912;BME280;41823;45.534;-73.332;2022-08-04T04:08:11;100591.98;;;30.68;28.94
55912;BME280;41823;45.534;-73.332;2022-08-04T04:11:18;100593.99;;;31.16;29.87
55912;BME280;41823;45.534;-73.332;2022-08-04T04:14:36;100595.59;;;30.72;29.55
55912;BME280;41823;45.534;-73.332;2022-08-04T04:17:32;100579.57;;;30.90;30.06
55912;BME280;41823;45.534;-73.332;2022-08-04T04:20:26;100579.97;;;30.90;29.95
55912;BME280;41823;45.534;-73.332;2022-08-04T04:23:18;100579.76;;;31.09;29.36
55912;BME280;41823;45.534;-73.332;2022-08-04T04:26:00;100582.59;;;31.15;29.40
55912;BME280;41823;45.534;-73.332;2022-08-04T04:28:56;100589.73;;;30.93;30.38
55912;BME280;41823;45.534;-73.332;2022-08-04T04:31:40;100593.99;;;31.15;29.36
55912;BME280;41823;45.534;-73.332;2022-08-04T04:34:28;100594.10;;;31.31;30.23
55912;BME280;41823;45.534;-73.332;2022-08-04T04:37:11;100586.38;;;30.73;29.72
55912;BME280;41823;45.534;-73.332;2022-08-04T04:39:50;100590.77;;;30.86;30.37
55912;BME280;41823;45.534;-73.332;2022-08-04T04:42:47;100588.78;;;30.69;30.20
55912;BME280;41823;45.534;-73.332;2022-08-04T04:45:27;100591.38;;;31.05;30.54
55912;BME280;41823;45.534;-73.332;2022-08-04T04:48:03;100596.51;;;31.11;29.35
55912;BME280;41823;45.534;-73.332;2022-08-04T04:50:44;100591.89;;;30.98;29.44
55912;BME280;41823;45.534;-73.332;2022-08-04T04:53:23;100585.64;;;31.10;29.90
55912;BME280;41823;45.534;-73.332;2022-08-04T04:56:02;100583.35;;;31.37;29.84
55912;BME280;41823;45.534;-73.332;2022-08-04T04:58:34;100582.81;;;30.76;30.13
55912;BME280;41823;45.534;-73.332;2022-08-04T05:01:18;100575.33;;;31.35;29.65
55912;BME280;41823;45.534;-73.332;2022-08-04T05:06:24;100572.62;;;31.51;29.46
55912;BME280;41823;45.534;-73.332;2022-08-04T05:09:12;100566.11;;;31.01;30.10
55912;BME280;41823;45.534;-73.332;2022-08-04T05:12:02;100561.54;;;31.16;29.58
55912;BME280;41823;45.534;-73.332;2022-08-04T05:14:43;100564.57;;;31.05;29.81
55912;BME280;41823;45.534;-73.332;2022-08-04T05:17:17;100559.45;;;31.62;29.40
55912;BME280;41823;45.534;-73.332;2022-08-04T05:19:54;100563.63;;;31.17;29.61
55912;BME280;41823;45.534;-73.332;2022-08-04T05:22:29;100561.05;;;31.64;29.66
55912;BME280;41823;45.534;-73.332;2022-08-04T05:25:05;100553.93;;;31.29;29.67
55912;BME280;41823;45.534;-73.332;2022-08-04T05:27:37;100551.50;;;31.51;29.92
55912;BME280;41823;45.534;-73.332;2022-08-04T05:30:07;100560.05;;;30.98;28.74
55912;BME280;41823;45.534;-73.332;2022-08-04T05:32:44;100557.29;;;30.82;29.62
55912;BME280;41823;45.534;-73.332;2022-08-04T05:35:19;100557.11;;;31.14;29.82
55912;BME280;41823;45.534;-73.332;2022-08-04T05:37:50;100550.92;;;31.41;29.30
55912;BME280;41823;45.534;-73.332;2022-08-04T05:40:22;100550.24;;;31.19;29.64
55912;BME280;41823;45.534;-73.332;2022-08-04T05:42:53;100545.44;;;30.82;29.50
55912;BME280;41823;45.534;-73.332;2022-08-04T05:45:22;100538.11;;;31.39;29.10
55912;BME280;41823;45.534;-73.332;2022-08-04T05:47:52;100535.51;;;31.21;29.37
55912;BME280;41823;45.534;-73.332;2022-08-04T05:50:21;100535.03;;;31.06;29.56
55912;BME280;41823;45.534;-73.332;2022-08-04T05:52:50;100528.77;;;31.44;28.59
55912;BME280;41823;45.534;-73.332;2022-08-04T05:55:19;100526.31;;;30.98;28.99
55912;BME280;41823;45.534;-73.332;2022-08-04T05:57:48;100517.11;;;30.87;29.30
55912;BME280;41823;45.534;-73.332;2022-08-04T06:00:17;100525.31;;;31.20;29.28
55912;BME280;41823;45.534;-73.332;2022-08-04T06:02:46;100529.00;;;30.94;27.98
55912;BME280;41823;45.534;-73.332;2022-08-04T06:05:16;100531.86;;;30.96;28.98
55912;BME280;41823;45.534;-73.332;2022-08-04T06:07:44;100532.06;;;30.70;28.99
55912;BME280;41823;45.534;-73.332;2022-08-04T06:10:13;100527.62;;;30.66;28.30
55912;BME280;41823;45.534;-73.332;2022-08-04T06:12:45;100529.48;;;30.75;28.20
55912;BME280;41823;45.534;-73.332;2022-08-04T06:15:18;100523.28;;;30.94;28.70
55912;BME280;41823;45.534;-73.332;2022-08-04T06:17:49;100522.84;;;30.95;29.10
55912;BME280;41823;45.534;-73.332;2022-08-04T06:20:20;100523.33;;;30.96;28.62
55912;BME280;41823;45.534;-73.332;2022-08-04T06:22:52;100523.20;;;30.92;28.40
55912;BME280;41823;45.534;-73.332;2022-08-04T06:25:24;100527.98;;;30.74;28.39
55912;BME280;41823;45.534;-73.332;2022-08-04T06:27:54;100522.77;;;30.64;28.07
55912;BME280;41823;45.534;-73.332;2022-08-04T06:30:22;100519.76;;;30.60;27.41
55912;BME280;41823;45.534;-73.332;2022-08-04T06:32:53;100521.39;;;31.00;27.92
55912;BME280;41823;45.534;-73.332;2022-08-04T06:35:23;100520.18;;;30.77;27.68
55912;BME280;41823;45.534;-73.332;2022-08-04T06:37:52;100519.31;;;30.62;28.48
55912;BME280;41823;45.534;-73.332;2022-08-04T06:40:23;100512.50;;;30.71;28.66
55912;BME280;41823;45.534;-73.332;2022-08-04T06:42:52;100513.29;;;30.91;28.16
55912;BME280;41823;45.534;-73.332;2022-08-04T06:45:20;100513.83;;;30.75;28.25
55912;BME280;41823;45.534;-73.332;2022-08-04T06:47:49;100518.00;;;31.33;28.23
55912;BME280;41823;45.534;-73.332;2022-08-04T06:50:17;100521.05;;;30.74;27.55
55912;BME280;41823;45.534;-73.332;2022-08-04T06:52:46;100523.61;;;30.44;28.64
55912;BME280;41823;45.534;-73.332;2022-08-04T06:55:14;100520.84;;;30.33;28.25
55912;BME280;41823;45.534;-73.332;2022-08-04T06:57:42;100526.25;;;30.79;28.17
55912;BME280;41823;45.534;-73.332;2022-08-04T07:00:13;100528.30;;;31.00;28.36
55912;BME280;41823;45.534;-73.332;2022-08-04T07:02:50;100527.17;;;30.62;27.92
55912;BME280;41823;45.534;-73.332;2022-08-04T07:05:20;100523.74;;;31.08;28.26
55912;BME280;41823;45.534;-73.332;2022-08-04T07:07:48;100519.24;;;30.75;28.10
55912;BME280;41823;45.534;-73.332;2022-08-04T07:10:16;100523.44;;;30.71;27.78
55912;BME280;41823;45.534;-73.332;2022-08-04T07:12:45;100517.64;;;30.55;28.00
55912;BME280;41823;45.534;-73.332;2022-08-04T07:15:16;100515.09;;;30.56;27.21
55912;BME280;41823;45.534;-73.332;2022-08-04T07:17:45;100506.11;;;30.48;27.57
55912;BME280;41823;45.534;-73.332;2022-08-04T07:20:14;100512.95;;;30.84;28.16
55912;BME280;41823;45.534;-73.332;2022-08-04T07:22:42;100509.45;;;30.99;28.04
55912;BME280;41823;45.534;-73.332;2022-08-04T07:25:10;100521.51;;;30.73;28.25
55912;BME280;41823;45.534;-73.332;2022-08-04T07:27:38;100523.51;;;30.95;28.08
55912;BME280;41823;45.534;-73.332;2022-08-04T07:30:07;100528.87;;;30.95;27.97
55912;BME280;41823;45.534;-73.332;2022-08-04T07:32:36;100541.75;;;30.95;27.97
55912;BME280;41823;45.534;-73.332;2022-08-04T07:35:05;100545.93;;;30.69;27.82
55912;BME280;41823;45.534;-73.332;2022-08-04T07:37:34;100548.30;;;30.87;27.38
55912;BME280;41823;45.534;-73.332;2022-08-04T07:40:02;100546.27;;;31.03;27.99
55912;BME280;41823;45.534;-73.332;2022-08-04T07:42:30;100547.22;;;30.46;28.48
55912;BME280;41823;45.534;-73.332;2022-08-04T07:44:59;100546.16;;;30.53;27.98
55912;BME280;41823;45.534;-73.332;2022-08-04T07:47:27;100544.39;;;31.04;28.38
55912;BME280;41823;45.534;-73.332;2022-08-04T07:49:55;100543.28;;;31.03;27.47
55912;BME280;41823;45.534;-73.332;2022-08-04T07:52:23;100548.11;;;30.81;28.19
55912;BME280;41823;45.534;-73.332;2022-08-04T07:54:52;100555.03;;;30.92;26.94
55912;BME280;41823;45.534;-73.332;2022-08-04T07:57:20;100550.97;;;30.68;28.43
55912;BME280;41823;45.534;-73.332;2022-08-04T07:59:48;100561.99;;;30.75;27.46
55912;BME280;41823;45.534;-73.332;2022-08-04T08:02:18;100560.96;;;31.05;27.79
55912;BME280;41823;45.534;-73.332;2022-08-04T08:04:46;100565.67;;;30.73;28.07
55912;BME280;41823;45.534;-73.332;2022-08-04T08:07:14;100573.66;;;30.81;28.54
55912;BME280;41823;45.534;-73.332;2022-08-04T08:09:42;100577.96;;;30.90;28.54
55912;BME280;41823;45.534;-73.332;2022-08-04T08:12:10;100580.54;;;30.97;28.02
55912;BME280;41823;45.534;-73.332;2022-08-04T08:14:39;100586.13;;;30.65;28.33
55912;BME280;41823;45.534;-73.332;2022-08-04T08:17:08;100578.86;;;30.79;27.81
55912;BME280;41823;45.534;-73.332;2022-08-04T08:19:35;100587.13;;;30.73;27.89
55912;BME280;41823;45.534;-73.332;2022-08-04T08:22:04;100580.11;;;30.80;28.54
55912;BME280;41823;45.534;-73.332;2022-08-04T08:24:35;100594.67;;;30.80;28.53
55912;BME280;41823;45.534;-73.332;2022-08-04T08:27:03;100592.30;;;30.88;28.92
55912;BME280;41823;45.534;-73.332;2022-08-04T08:29:33;100592.41;;;30.93;28.44
55912;BME280;41823;45.534;-73.332;2022-08-04T08:32:03;100593.87;;;30.36;28.74
55912;BME280;41823;45.534;-73.332;2022-08-04T08:34:31;100590.59;;;30.96;28.26
55912;BME280;41823;45.534;-73.332;2022-08-04T08:37:03;100588.36;;;31.19;28.83
55912;BME280;41823;45.534;-73.332;2022-08-04T08:39:41;100583.18;;;31.18;28.35
55912;BME280;41823;45.534;-73.332;2022-08-04T08:42:58;100585.27;;;30.72;28.79
55912;BME280;41823;45.534;-73.332;2022-08-04T08:45:54;100589.56;;;30.91;28.41
55912;BME280;41823;45.534;-73.332;2022-08-04T08:48:46;100590.78;;;30.46;27.85
55912;BME280;41823;45.534;-73.332;2022-08-04T08:51:39;100586.60;;;30.72;28.28
55912;BME280;41823;45.534;-73.332;2022-08-04T08:54:36;100591.31;;;30.65;28.84
55912;BME280;41823;45.534;-73.332;2022-08-04T08:57:23;100584.98;;;30.57;28.64
55912;BME280;41823;45.534;-73.332;2022-08-04T09:00:06;100584.76;;;30.93;28.64
55912;BME280;41823;45.534;-73.332;2022-08-04T09:02:54;100582.48;;;31.02;28.65
55912;BME280;41823;45.534;-73.332;2022-08-04T09:05:44;100587.13;;;30.58;28.47
55912;BME280;41823;45.534;-73.332;2022-08-04T09:08:25;100593.59;;;30.44;28.26
55912;BME280;41823;45.534;-73.332;2022-08-04T09:11:02;100589.03;;;30.61;27.74
55912;BME280;41823;45.534;-73.332;2022-08-04T09:13:38;100583.88;;;30.88;28.23
55912;BME280;41823;45.534;-73.332;2022-08-04T09:16:15;100583.37;;;31.13;27.91
55912;BME280;41823;45.534;-73.332;2022-08-04T09:18:51;100585.89;;;31.02;28.46
55912;BME280;41823;45.534;-73.332;2022-08-04T09:21:28;100573.87;;;31.03;28.97
55912;BME280;41823;45.534;-73.332;2022-08-04T09:24:05;100568.45;;;30.78;28.63
55912;BME280;41823;45.534;-73.332;2022-08-04T09:26:43;100576.01;;;30.96;28.99
55912;BME280;41823;45.534;-73.332;2022-08-04T09:29:19;100582.27;;;30.77;28.60
55912;BME280;41823;45.534;-73.332;2022-08-04T09:31:55;100597.23;;;31.05;28.56
55912;BME280;41823;45.534;-73.332;2022-08-04T09:34:33;100605.47;;;31.21;28.85
55912;BME280;41823;45.534;-73.332;2022-08-04T09:37:13;100610.26;;;30.83;28.20
55912;BME280;41823;45.534;-73.332;2022-08-04T09:39:48;100609.04;;;30.70;28.57
55912;BME280;41823;45.534;-73.332;2022-08-04T09:42:27;100610.23;;;30.38;28.83
55912;BME280;41823;45.534;-73.332;2022-08-04T09:45:06;100613.70;;;30.86;28.64
55912;BME280;41823;45.534;-73.332;2022-08-04T09:47:46;100616.15;;;30.55;28.95
55912;BME280;41823;45.534;-73.332;2022-08-04T09:50:27;100623.98;;;30.66;28.80
55912;BME280;41823;45.534;-73.332;2022-08-04T09:53:08;100625.39;;;30.61;28.87
55912;BME280;41823;45.534;-73.332;2022-08-04T09:55:46;100615.30;;;30.77;28.18
55912;BME280;41823;45.534;-73.332;2022-08-04T09:58:26;100620.18;;;30.81;28.72
55912;BME280;41823;45.534;-73.332;2022-08-04T10:01:05;100631.54;;;30.81;28.70
55912;BME280;41823;45.534;-73.332;2022-08-04T10:03:38;100650.73;;;30.83;28.91
55912;BME280;41823;45.534;-73.332;2022-08-04T10:06:18;100661.27;;;30.81;29.20
55912;BME280;41823;45.534;-73.332;2022-08-04T10:09:04;100666.78;;;31.09;28.87
55912;BME280;41823;45.534;-73.332;2022-08-04T10:11:54;100672.05;;;30.46;29.01
55912;BME280;41823;45.534;-73.332;2022-08-04T10:14:39;100676.43;;;30.42;28.90
55912;BME280;41823;45.534;-73.332;2022-08-04T10:17:25;100687.67;;;30.55;28.61
55912;BME280;41823;45.534;-73.332;2022-08-04T10:20:06;100693.09;;;30.61;28.91
55912;BME280;41823;45.534;-73.332;2022-08-04T10:22:38;100699.55;;;30.49;29.10
55912;BME280;41823;45.534;-73.332;2022-08-04T10:25:19;100690.36;;;30.76;29.17
55912;BME280;41823;45.534;-73.332;2022-08-04T10:27:51;100709.75;;;30.74;29.38
55912;BME280;41823;45.534;-73.332;2022-08-04T10:30:22;100701.81;;;30.51;30.31
55912;BME280;41823;45.534;-73.332;2022-08-04T10:32:57;100709.80;;;30.56;30.71
55912;BME280;41823;45.534;-73.332;2022-08-04T10:35:31;100711.21;;;30.55;30.96
55912;BME280;41823;45.534;-73.332;2022-08-04T10:38:09;100705.08;;;30.56;30.81
55912;BME280;41823;45.534;-73.332;2022-08-04T10:40:42;100713.06;;;30.55;31.85
55912;BME280;41823;45.534;-73.332;2022-08-04T10:43:24;100706.29;;;30.47;31.77
55912;BME280;41823;45.534;-73.332;2022-08-04T10:45:58;100696.46;;;30.37;30.51
55912;BME280;41823;45.534;-73.332;2022-08-04T10:48:38;100698.46;;;30.19;31.32
55912;BME280;41823;45.534;-73.332;2022-08-04T10:51:18;100710.47;;;30.37;31.86
55912;BME280;41823;45.534;-73.332;2022-08-04T10:53:52;100721.59;;;30.26;31.02
55912;BME280;41823;45.534;-73.332;2022-08-04T10:56:30;100723.57;;;30.18;31.79
55912;BME280;41823;45.534;-73.332;2022-08-04T10:59:03;100717.08;;;30.18;32.33
55912;BME280;41823;45.534;-73.332;2022-08-04T11:01:38;100704.96;;;30.16;31.77
55912;BME280;41823;45.534;-73.332;2022-08-04T11:04:11;100705.01;;;29.95;33.31
55912;BME280;41823;45.534;-73.332;2022-08-04T11:06:43;100709.06;;;30.37;32.30
55912;BME280;41823;45.534;-73.332;2022-08-04T11:09:12;100709.64;;;30.14;33.18
55912;BME280;41823;45.534;-73.332;2022-08-04T11:11:46;100717.02;;;30.47;33.37
55912;BME280;41823;45.534;-73.332;2022-08-04T11:14:18;100729.77;;;29.90;34.15
55912;BME280;41823;45.534;-73.332;2022-08-04T11:16:52;100731.45;;;30.19;32.94
55912;BME280;41823;45.534;-73.332;2022-08-04T11:19:31;100731.15;;;30.28;33.75
55912;BME280;41823;45.534;-73.332;2022-08-04T11:22:05;100738.50;;;30.25;32.18
55912;BME280;41823;45.534;-73.332;2022-08-04T11:24:44;100740.22;;;30.39;33.13
55912;BME280;41823;45.534;-73.332;2022-08-04T11:27:15;100754.12;;;30.19;33.17
55912;BME280;41823;45.534;-73.332;2022-08-04T11:29:56;100757.71;;;30.09;32.69
55912;BME280;41823;45.534;-73.332;2022-08-04T11:32:36;100748.91;;;30.34;32.53
55912;BME280;41823;45.534;-73.332;2022-08-04T11:35:13;100747.97;;;30.17;32.75
55912;BME280;41823;45.534;-73.332;2022-08-04T11:37:51;100747.63;;;30.07;32.97
55912;BME280;41823;45.534;-73.332;2022-08-04T11:40:26;100753.66;;;30.04;33.31
55912;BME280;41823;45.534;-73.332;2022-08-04T11:43:01;100755.98;;;31.02;32.71
55912;BME280;41823;45.534;-73.332;2022-08-04T11:45:35;100754.41;;;30.59;32.27
55912;BME280;41823;45.534;-73.332;2022-08-04T11:48:10;100749.94;;;30.43;32.93
55912;BME280;41823;45.534;-73.332;2022-08-04T11:50:44;100751.38;;;30.02;33.13
55912;BME280;41823;45.534;-73.332;2022-08-04T11:53:19;100755.09;;;30.31;33.29
55912;BME280;41823;45.534;-73.332;2022-08-04T11:55:50;100759.79;;;30.31;33.15
55912;BME280;41823;45.534;-73.332;2022-08-04T11:58:19;100764.81;;;30.77;33.28
55912;BME280;41823;45.534;-73.332;2022-08-04T12:00:55;100755.79;;;30.31;32.97
55912;BME280;41823;45.534;-73.332;2022-08-04T12:03:34;100752.71;;;30.31;33.67
55912;BME280;41823;45.534;-73.332;2022-08-04T12:06:14;100754.16;;;30.30;32.96
55912;BME280;41823;45.534;-73.332;2022-08-04T12:08:59;100755.69;;;30.09;33.24
55912;BME280;41823;45.534;-73.332;2022-08-04T12:11:45;100749.72;;;30.60;31.90
55912;BME280;41823;45.534;-73.332;2022-08-04T12:14:28;100760.57;;;30.06;33.26
55912;BME280;41823;45.534;-73.332;2022-08-04T12:17:00;100762.60;;;30.23;32.66
55912;BME280;41823;45.534;-73.332;2022-08-04T12:19:32;100771.08;;;30.19;33.01
55912;BME280;41823;45.534;-73.332;2022-08-04T12:22:07;100774.96;;;30.18;31.95
55912;BME280;41823;45.534;-73.332;2022-08-04T12:24:40;100777.21;;;30.28;33.17
55912;BME280;41823;45.534;-73.332;2022-08-04T12:27:14;100779.41;;;30.23;33.64
55912;BME280;41823;45.534;-73.332;2022-08-04T12:29:44;100779.50;;;30.34;33.74
55912;BME280;41823;45.534;-73.332;2022-08-04T12:32:24;100784.35;;;30.53;33.66
55912;BME280;41823;45.534;-73.332;2022-08-04T12:35:05;100777.76;;;30.59;33.34
55912;BME280;41823;45.534;-73.332;2022-08-04T12:37:45;100782.02;;;30.79;32.69
55912;BME280;41823;45.534;-73.332;2022-08-04T12:40:19;100776.92;;;30.44;33.70
55912;BME280;41823;45.534;-73.332;2022-08-04T12:42:57;100764.81;;;30.70;33.95
55912;BME280;41823;45.534;-73.332;2022-08-04T12:45:30;100761.52;;;30.87;33.59
55912;BME280;41823;45.534;-73.332;2022-08-04T12:47:59;100752.90;;;30.61;32.94
55912;BME280;41823;45.534;-73.332;2022-08-04T12:50:29;100771.40;;;30.89;33.23
55912;BME280;41823;45.534;-73.332;2022-08-04T12:52:58;100780.58;;;30.64;33.25
55912;BME280;41823;45.534;-73.332;2022-08-04T12:55:28;100773.70;;;30.68;32.95
55912;BME280;41823;45.534;-73.332;2022-08-04T12:57:57;100768.12;;;30.61;33.24
55912;BME280;41823;45.534;-73.332;2022-08-04T13:00:28;100766.61;;;30.64;32.57
55912;BME280;41823;45.534;-73.332;2022-08-04T13:03:05;100763.69;;;30.82;33.29
55912;BME280;41823;45.534;-73.332;2022-08-04T13:05:33;100758.21;;;30.44;34.23
55912;BME280;41823;45.534;-73.332;2022-08-04T13:08:03;100765.75;;;30.72;33.64
55912;BME280;41823;45.534;-73.332;2022-08-04T13:10:37;100767.25;;;30.73;33.54
55912;BME280;41823;45.534;-73.332;2022-08-04T13:13:12;100770.88;;;30.46;33.64
55912;BME280;41823;45.534;-73.332;2022-08-04T13:15:42;100763.58;;;30.55;34.39
55912;BME280;41823;45.534;-73.332;2022-08-04T13:18:10;100766.02;;;30.67;34.68
55912;BME280;41823;45.534;-73.332;2022-08-04T13:20:39;100769.28;;;30.98;33.92
55912;BME280;41823;45.534;-73.332;2022-08-04T13:23:10;100773.14;;;31.25;32.67
55912;BME280;41823;45.534;-73.332;2022-08-04T13:25:42;100770.09;;;30.76;34.17